Time;durP1;ratioP1;P1;durP2;ratioP2;P2;SDS_P1;SDS_P2;PMS_P1;PMS_P2;Temp;Humidity;BMP_temperature;BMP_pressure;BME280_temperature;BME280_humidity;BME280_pressure;Samples;Min_cycle;Max_cycle;Signal;HPM_P1;HPM_P2
2022/04/25 00:00:56;;;;;;;14.10;8.93;;;8.80;99.90;;;;;;5069168;28;20314;-80
2022/04/25 00:03:23;;;;;;;18.10;9.47;;;8.80;99.90;;;;;;5096781;28;20214;-80
2022/04/25 00:05:50;;;;;;;14.33;9.33;;;8.80;99.90;;;;;;5102516;28;20242;-79
2022/04/25 00:08:17;;;;;;;16.00;9.33;;;8.90;99.90;;;;;;5100779;28;20255;-80
2022/04/25 00:10:44;;;;;;;16.93;9.90;;;8.90;99.90;;;;;;5097849;28;20200;-79
2022/04/25 00:13:11;;;;;;;13.03;9.07;;;8.90;99.90;;;;;;5086322;28;20677;-80
2022/04/25 00:15:38;;;;;;;12.73;8.97;;;9.00;99.90;;;;;;5089323;28;20237;-80
2022/04/25 00:18:05;;;;;;;19.50;9.47;;;8.90;99.90;;;;;;5067398;28;20210;-80
2022/04/25 00:20:32;;;;;;;15.27;9.13;;;9.00;99.90;;;;;;5070651;28;20204;-80
2022/04/25 00:23:04;;;;;;;14.27;8.33;;;9.10;99.90;;;;;;5080002;28;20213;-82
2022/04/25 00:25:35;;;;;;;16.93;9.50;;;9.00;99.90;;;;;;5084654;28;20370;-80
2022/04/25 00:28:03;;;;;;;15.57;9.00;;;9.00;99.90;;;;;;5084599;28;20232;-80
2022/04/25 00:30:30;;;;;;;16.10;8.50;;;9.00;99.90;;;;;;5087399;28;20255;-79
2022/04/25 00:32:58;;;;;;;16.17;8.60;;;9.00;99.90;;;;;;5085299;28;20229;-81
2022/04/25 00:35:26;;;;;;;14.00;9.37;;;9.00;99.90;;;;;;5079943;28;20250;-81
2022/04/25 00:37:53;;;;;;;17.47;8.80;;;9.00;99.90;;;;;;5087461;28;20238;-80
2022/04/25 00:40:22;;;;;;;21.10;9.93;;;9.00;99.90;;;;;;5069346;28;20253;-79
2022/04/25 00:42:50;;;;;;;15.40;8.90;;;9.00;99.90;;;;;;5084116;28;20255;-81
2022/04/25 00:45:17;;;;;;;14.43;8.43;;;8.90;99.90;;;;;;5083865;28;20201;-80
2022/04/25 00:47:45;;;;;;;15.67;9.47;;;8.90;99.90;;;;;;5086346;28;20295;-80
2022/04/25 00:50:13;;;;;;;16.20;9.53;;;8.80;99.90;;;;;;5091581;28;21144;-80
2022/04/25 00:52:41;;;;;;;17.30;9.30;;;8.80;99.90;;;;;;5090678;28;20215;-81
2022/04/25 00:55:10;;;;;;;18.43;9.57;;;8.70;99.90;;;;;;5092665;28;20202;-81
2022/04/25 00:57:38;;;;;;;15.33;9.37;;;8.60;99.90;;;;;;5091880;28;20199;-81
2022/04/25 01:00:08;;;;;;;20.40;9.30;;;8.60;99.90;;;;;;5080732;28;20208;-79
2022/04/25 01:02:36;;;;;;;14.70;9.53;;;8.50;99.90;;;;;;5084019;28;20287;-81
2022/04/25 01:05:07;;;;;;;16.83;9.60;;;8.50;99.90;;;;;;5078886;28;20199;-80
2022/04/25 01:07:35;;;;;;;15.97;9.43;;;8.40;99.90;;;;;;5086750;28;20219;-80
2022/04/25 01:10:04;;;;;;;16.60;10.57;;;8.40;99.90;;;;;;5068480;28;20257;-80
2022/04/25 01:12:31;;;;;;;18.43;9.00;;;8.30;99.90;;;;;;5081214;28;20236;-81
2022/04/25 01:15:03;;;;;;;16.53;9.57;;;8.30;99.90;;;;;;5079711;28;20682;-82
2022/04/25 01:17:30;;;;;;;19.03;9.93;;;8.30;99.90;;;;;;5085499;28;20208;-81
2022/04/25 01:19:57;;;;;;;19.10;10.23;;;8.20;99.90;;;;;;5081010;28;20668;-80
2022/04/25 01:22:54;;;;;;;18.80;9.70;;;8.20;99.90;;;;;;5084780;28;20313;-81
2022/04/25 01:28:07;;;;;;;20.20;10.00;;;8.10;99.90;;;;;;5089365;28;20338;-81
2022/04/25 01:30:33;;;;;;;16.83;10.07;;;8.10;99.90;;;;;;5068543;28;20196;-80
2022/04/25 01:33:00;;;;;;;15.70;10.43;;;8.10;99.90;;;;;;5088118;28;20211;-80
2022/04/25 01:35:27;;;;;;;15.43;9.30;;;8.10;99.90;;;;;;5089832;28;20207;-81
2022/04/25 01:37:54;;;;;;;20.13;10.63;;;8.20;99.90;;;;;;5087309;28;20220;-80
2022/04/25 01:40:25;;;;;;;18.80;10.33;;;8.00;99.90;;;;;;5067370;28;20231;-79
2022/04/25 01:42:52;;;;;;;17.87;10.50;;;8.00;99.90;;;;;;5084375;28;20322;-80
2022/04/25 01:45:20;;;;;;;17.03;10.07;;;8.00;99.90;;;;;;5072061;28;20207;-81
2022/04/25 01:47:47;;;;;;;20.57;10.30;;;8.10;99.90;;;;;;5082658;28;20585;-81
2022/04/25 01:50:14;;;;;;;16.70;10.80;;;8.10;99.90;;;;;;5087139;28;20657;-81
2022/04/25 01:52:41;;;;;;;19.10;11.17;;;8.10;99.90;;;;;;5072196;28;20231;-81
2022/04/25 01:55:08;;;;;;;20.67;10.73;;;8.00;99.90;;;;;;5094189;28;20308;-80
2022/04/25 01:57:35;;;;;;;17.83;10.63;;;8.00;99.90;;;;;;5066725;28;20275;-80
2022/04/25 02:00:03;;;;;;;18.83;10.90;;;8.00;99.90;;;;;;5088792;28;20284;-80
2022/04/25 02:02:29;;;;;;;18.20;10.90;;;8.00;99.90;;;;;;5087185;28;20265;-80
2022/04/25 02:04:56;;;;;;;20.73;11.63;;;8.00;99.90;;;;;;5089743;28;20546;-81
2022/04/25 02:07:23;;;;;;;21.57;11.07;;;8.00;99.90;;;;;;5084592;28;20507;-81
2022/04/25 02:09:50;;;;;;;24.17;11.70;;;8.00;99.90;;;;;;5087650;28;20253;-81
2022/04/25 02:12:20;;;;;;;23.03;11.60;;;8.00;99.90;;;;;;5084565;28;20662;-81
2022/04/25 02:14:47;;;;;;;18.90;11.23;;;8.00;99.90;;;;;;5084334;28;20199;-80
2022/04/25 02:17:15;;;;;;;22.30;11.10;;;8.00;99.90;;;;;;5089161;28;20204;-80
2022/04/25 02:19:44;;;;;;;20.23;10.53;;;8.10;99.90;;;;;;5087914;28;20192;-81
2022/04/25 02:22:12;;;;;;;16.67;10.63;;;8.10;99.90;;;;;;5083706;28;20217;-81
2022/04/25 02:24:40;;;;;;;21.63;10.67;;;8.10;99.90;;;;;;5087204;28;20498;-80
2022/04/25 02:27:08;;;;;;;20.00;10.23;;;8.10;99.90;;;;;;5085665;28;20295;-80
2022/04/25 02:29:43;;;;;;;21.10;11.40;;;8.10;99.90;;;;;;5087060;28;20675;-81
2022/04/25 02:32:12;;;;;;;20.03;11.07;;;8.20;99.90;;;;;;5089481;28;20556;-80
2022/04/25 02:34:41;;;;;;;20.37;10.63;;;8.20;99.90;;;;;;5089332;28;20199;-79
2022/04/25 02:37:08;;;;;;;20.33;11.33;;;8.20;99.90;;;;;;5087433;28;20586;-83
2022/04/25 02:39:35;;;;;;;19.20;10.87;;;8.10;99.90;;;;;;5070549;28;20203;-81
2022/04/25 02:42:02;;;;;;;19.00;10.83;;;8.20;99.90;;;;;;5086619;28;20715;-82
2022/04/25 02:44:28;;;;;;;16.10;10.23;;;8.20;99.90;;;;;;5081783;28;20628;-81
2022/04/25 02:46:56;;;;;;;20.47;11.10;;;8.20;99.90;;;;;;5081639;28;20700;-82
2022/04/25 02:49:22;;;;;;;19.20;11.53;;;8.20;99.90;;;;;;5082918;28;20283;-80
2022/04/25 02:51:49;;;;;;;20.63;11.33;;;8.10;99.90;;;;;;5083611;28;20632;-80
2022/04/25 02:54:16;;;;;;;18.27;11.53;;;8.10;99.90;;;;;;5087865;28;20539;-81
2022/04/25 02:56:43;;;;;;;21.87;11.83;;;8.20;99.90;;;;;;5069310;28;20207;-80
2022/04/25 02:59:10;;;;;;;22.53;11.77;;;8.20;99.90;;;;;;5088690;28;20240;-81
2022/04/25 03:01:37;;;;;;;20.13;10.50;;;8.20;99.90;;;;;;5090798;28;20226;-80
2022/04/25 03:04:04;;;;;;;18.63;10.13;;;8.20;99.90;;;;;;5088451;28;20265;-80
2022/04/25 03:06:31;;;;;;;19.23;11.03;;;8.20;99.90;;;;;;5091347;28;20220;-81
2022/04/25 03:08:58;;;;;;;22.77;11.90;;;8.20;99.90;;;;;;5075277;28;20304;-81
2022/04/25 03:11:25;;;;;;;19.00;12.03;;;8.20;99.90;;;;;;5092932;28;20199;-80
2022/04/25 03:13:52;;;;;;;24.17;12.37;;;8.20;99.90;;;;;;5070153;28;20206;-80
2022/04/25 03:16:20;;;;;;;19.43;11.00;;;8.20;99.90;;;;;;5088917;28;20201;-81
2022/04/25 03:18:48;;;;;;;21.13;12.40;;;8.30;99.90;;;;;;5092381;28;20222;-80
2022/04/25 03:21:15;;;;;;;25.03;12.63;;;8.20;99.90;;;;;;5089397;28;20203;-82
2022/04/25 03:23:43;;;;;;;23.57;13.30;;;8.20;99.90;;;;;;5087978;28;20571;-83
2022/04/25 03:26:10;;;;;;;22.37;12.27;;;8.20;99.90;;;;;;5087557;28;20335;-81
2022/04/25 03:28:37;;;;;;;24.47;13.30;;;8.30;99.90;;;;;;5088038;28;20203;-82
2022/04/25 03:31:07;;;;;;;23.47;12.57;;;8.30;99.90;;;;;;5082892;28;20288;-81
2022/04/25 03:33:35;;;;;;;25.07;12.47;;;8.30;99.90;;;;;;5090796;28;20302;-81
2022/04/25 03:36:03;;;;;;;26.10;13.33;;;8.40;99.90;;;;;;5087999;28;20578;-81
2022/04/25 03:38:30;;;;;;;24.53;13.43;;;8.50;99.90;;;;;;5088654;28;20294;-82
2022/04/25 03:41:00;;;;;;;22.43;12.77;;;8.30;99.90;;;;;;5088188;28;20219;-82
2022/04/25 03:43:28;;;;;;;26.23;13.00;;;8.40;99.90;;;;;;5085683;28;20235;-81
2022/04/25 03:45:55;;;;;;;21.80;13.23;;;8.40;99.90;;;;;;5086148;28;20566;-81
2022/04/25 03:48:22;;;;;;;26.53;13.97;;;8.40;99.90;;;;;;5084244;28;20544;-82
2022/04/25 03:50:49;;;;;;;22.50;13.30;;;8.50;99.90;;;;;;5084962;28;20275;-83
2022/04/25 03:53:16;;;;;;;27.10;14.20;;;8.50;99.90;;;;;;5069021;28;20219;-82
2022/04/25 03:58:31;;;;;;;29.53;14.77;;;8.50;99.90;;;;;;5084756;28;20188;-82
2022/04/25 04:00:58;;;;;;;27.10;13.27;;;8.40;99.90;;;;;;5070431;28;20214;-80
2022/04/25 04:03:25;;;;;;;26.97;14.70;;;8.50;99.90;;;;;;5087016;28;20214;-81
2022/04/25 04:05:53;;;;;;;27.23;15.67;;;8.50;99.90;;;;;;5087103;28;20234;-82
2022/04/25 04:08:20;;;;;;;28.33;15.10;;;8.50;99.90;;;;;;5087438;28;20547;-82
2022/04/25 04:10:47;;;;;;;30.77;16.23;;;8.50;99.90;;;;;;5064259;28;20196;-81
2022/04/25 04:13:14;;;;;;;28.80;15.80;;;8.60;99.90;;;;;;5083209;28;20197;-80
2022/04/25 04:15:42;;;;;;;26.80;15.17;;;8.60;99.90;;;;;;5086264;28;20203;-80
2022/04/25 04:18:09;;;;;;;30.70;16.30;;;8.60;99.90;;;;;;5087261;28;20634;-81
2022/04/25 04:20:36;;;;;;;29.33;16.13;;;8.60;99.90;;;;;;5084001;28;20246;-83
2022/04/25 04:23:04;;;;;;;30.83;16.20;;;8.60;99.90;;;;;;5067983;28;20247;-80
2022/04/25 04:25:32;;;;;;;33.10;16.67;;;8.70;99.90;;;;;;5087649;28;20357;-81
2022/04/25 04:27:59;;;;;;;31.47;16.80;;;8.60;99.90;;;;;;5082503;28;20224;-82
2022/04/25 04:30:26;;;;;;;28.80;16.77;;;8.70;99.90;;;;;;5064825;28;20203;-80
2022/04/25 04:32:53;;;;;;;31.50;16.13;;;8.80;99.90;;;;;;5086109;28;20206;-81
2022/04/25 04:38:06;;;;;;;30.83;17.40;;;8.80;99.90;;;;;;5083775;28;20711;-81
2022/04/25 04:40:34;;;;;;;29.20;16.30;;;8.90;99.90;;;;;;5085566;28;20196;-81
2022/04/25 04:43:01;;;;;;;31.67;18.03;;;8.80;99.90;;;;;;5065794;28;20228;-82
2022/04/25 04:45:29;;;;;;;31.57;16.53;;;8.90;99.90;;;;;;5082989;28;20216;-80
2022/04/25 04:47:56;;;;;;;33.40;17.67;;;8.80;99.90;;;;;;5086294;28;20704;-82
2022/04/25 04:50:23;;;;;;;30.17;17.37;;;9.00;99.90;;;;;;5090704;28;20223;-81
2022/04/25 04:52:52;;;;;;;33.03;17.60;;;9.00;99.90;;;;;;5072551;28;20224;-81
2022/04/25 04:55:19;;;;;;;34.67;17.57;;;9.00;99.90;;;;;;5064219;28;20255;-81
2022/04/25 04:57:47;;;;;;;31.07;17.90;;;9.00;99.90;;;;;;5066199;28;20282;-81
2022/04/25 05:00:16;;;;;;;36.50;17.77;;;9.00;99.90;;;;;;5071093;28;20204;-80
2022/04/25 05:02:45;;;;;;;32.87;18.40;;;9.10;99.90;;;;;;5092055;28;20204;-81
2022/04/25 05:05:13;;;;;;;36.13;17.83;;;9.10;99.90;;;;;;5070550;28;20532;-81
2022/04/25 05:07:41;;;;;;;35.57;18.00;;;9.10;99.90;;;;;;5090131;28;20331;-82
2022/04/25 05:10:09;;;;;;;31.70;18.43;;;9.10;99.90;;;;;;5072404;28;20270;-81
2022/04/25 05:12:50;;;;;;;37.03;19.03;;;9.10;99.90;;;;;;5087357;28;20542;-82
2022/04/25 05:15:18;;;;;;;31.57;18.97;;;9.10;99.90;;;;;;5080210;28;20238;-81
2022/04/25 05:17:53;;;;;;;29.93;17.57;;;9.10;99.90;;;;;;5091490;28;20280;-81
2022/04/25 05:20:22;;;;;;;35.10;19.53;;;9.10;99.90;;;;;;5088459;28;20285;-83
2022/04/25 05:22:51;;;;;;;36.50;19.03;;;9.10;99.90;;;;;;5086202;28;20298;-81
2022/04/25 05:25:20;;;;;;;35.43;19.83;;;9.20;99.90;;;;;;5086886;28;20208;-80
2022/04/25 05:27:49;;;;;;;33.53;19.53;;;9.20;99.90;;;;;;5087673;28;20282;-82
2022/04/25 05:30:16;;;;;;;31.03;18.03;;;9.20;99.90;;;;;;5070732;28;20782;-81
2022/04/25 05:32:48;;;;;;;34.93;20.07;;;9.20;99.90;;;;;;5088793;28;20203;-81
2022/04/25 05:35:16;;;;;;;35.13;19.17;;;9.20;99.90;;;;;;5096493;28;20707;-81
2022/04/25 05:37:44;;;;;;;37.67;19.50;;;9.20;99.90;;;;;;5090652;28;20250;-82
2022/04/25 05:40:12;;;;;;;34.73;18.83;;;9.70;99.90;;;;;;5089657;28;20607;-79
2022/04/25 05:42:41;;;;;;;34.87;18.17;;;9.70;99.90;;;;;;5089469;28;20290;-81
2022/04/25 05:45:12;;;;;;;34.60;19.60;;;9.00;99.90;;;;;;5086657;28;20213;-82
2022/04/25 05:47:40;;;;;;;36.20;19.23;;;9.10;99.90;;;;;;5085701;28;20294;-79
2022/04/25 05:52:56;;;;;;;37.43;18.53;;;9.10;99.90;;;;;;5092897;28;20287;-81
2022/04/25 05:55:23;;;;;;;35.00;20.27;;;9.10;99.90;;;;;;5086643;28;20838;-79
2022/04/25 05:57:51;;;;;;;36.53;20.37;;;9.00;99.90;;;;;;5088029;28;20591;-80
2022/04/25 06:00:25;;;;;;;34.67;19.10;;;9.00;99.90;;;;;;5073367;28;20664;-81
2022/04/25 06:02:52;;;;;;;38.73;19.47;;;9.10;99.90;;;;;;5089729;28;20257;-80
2022/04/25 06:05:19;;;;;;;37.37;19.83;;;8.80;99.90;;;;;;5090294;28;20567;-80
2022/04/25 06:07:47;;;;;;;38.47;20.17;;;9.00;99.90;;;;;;5089268;28;20233;-81
2022/04/25 06:10:19;;;;;;;36.00;20.53;;;9.00;99.90;;;;;;5087395;28;20202;-81
2022/04/25 06:12:51;;;;;;;35.80;20.23;;;9.00;99.90;;;;;;5075558;28;20202;-81
2022/04/25 06:15:24;;;;;;;38.57;19.80;;;8.90;99.90;;;;;;5083517;28;20201;-81
2022/04/25 06:17:53;;;;;;;39.67;21.07;;;9.20;99.90;;;;;;5071614;28;20210;-80
2022/04/25 06:20:21;;;;;;;44.67;22.10;;;9.50;99.90;;;;;;5073078;28;20213;-80
2022/04/25 06:22:56;;;;;;;36.60;20.90;;;8.90;99.90;;;;;;5084379;28;20302;-80
2022/04/25 06:25:26;;;;;;;40.33;20.07;;;8.90;99.90;;;;;;5071638;28;20288;-80
2022/04/25 06:27:53;;;;;;;40.90;19.97;;;8.90;99.90;;;;;;5064668;28;20625;-80
2022/04/25 06:30:24;;;;;;;38.20;20.87;;;8.20;99.90;;;;;;5086105;28;20678;-79
2022/04/25 06:32:51;;;;;;;41.63;21.03;;;8.90;99.90;;;;;;5088526;28;20288;-80
2022/04/25 06:35:20;;;;;;;42.57;20.87;;;9.20;99.90;;;;;;5074569;28;20234;-79
2022/04/25 06:37:48;;;;;;;43.00;22.03;;;9.10;99.90;;;;;;5085983;28;20724;-79
2022/04/25 06:40:16;;;;;;;42.40;21.37;;;9.00;99.90;;;;;;5090372;28;20244;-80
2022/04/25 06:42:43;;;;;;;43.17;22.37;;;9.00;99.90;;;;;;5090660;28;20278;-79
2022/04/25 06:45:09;;;;;;;44.90;20.93;;;9.70;99.90;;;;;;5089762;28;20325;-79
2022/04/25 06:47:36;;;;;;;39.80;20.63;;;9.30;99.90;;;;;;5091021;28;20788;-79
2022/04/25 06:50:03;;;;;;;41.27;20.97;;;9.10;99.90;;;;;;5094780;28;20207;-80
2022/04/25 06:52:33;;;;;;;38.73;20.60;;;9.10;99.90;;;;;;5097087;28;20645;-78
2022/04/25 06:55:00;;;;;;;36.00;19.93;;;9.30;99.90;;;;;;5101483;28;20213;-77
2022/04/25 06:57:30;;;;;;;43.77;21.30;;;8.90;99.90;;;;;;5101697;28;20206;-79
2022/04/25 06:59:57;;;;;;;38.50;20.70;;;9.10;99.90;;;;;;5097018;28;20608;-79
2022/04/25 07:02:44;;;;;;;41.20;20.37;;;9.10;99.90;;;;;;5098099;28;20185;-80
2022/04/25 07:05:11;;;;;;;44.77;21.13;;;9.10;99.90;;;;;;5077291;28;20235;-81
2022/04/25 07:07:38;;;;;;;39.30;20.47;;;9.00;99.90;;;;;;5093460;28;20244;-80
2022/04/25 07:10:06;;;;;;;41.17;20.23;;;9.10;99.90;;;;;;5073390;28;20241;-80
2022/04/25 07:12:34;;;;;;;45.93;21.47;;;9.10;99.90;;;;;;5084934;28;20370;-79
2022/04/25 07:15:02;;;;;;;40.97;20.70;;;9.10;99.90;;;;;;5080881;28;20195;-79
2022/04/25 07:17:29;;;;;;;35.43;19.10;;;9.10;99.90;;;;;;5084586;28;20229;-80
2022/04/25 07:19:58;;;;;;;43.00;21.63;;;9.10;99.90;;;;;;5085977;28;20293;-79
2022/04/25 07:30:42;;;;;;;35.07;19.20;;;8.80;99.90;;;;;;5086856;28;20259;-79
2022/04/25 07:33:08;;;;;;;37.97;20.53;;;9.70;99.90;;;;;;5080927;28;20232;-80
2022/04/25 07:35:38;;;;;;;41.53;20.00;;;8.90;99.90;;;;;;5088398;28;20202;-80
2022/04/25 07:38:07;;;;;;;42.50;21.03;;;9.30;99.90;;;;;;5064351;28;20238;-79
2022/04/25 07:40:34;;;;;;;37.70;18.90;;;8.90;99.90;;;;;;5086244;28;20264;-79
2022/04/25 07:43:00;;;;;;;42.03;20.53;;;8.90;99.90;;;;;;5082358;28;20233;-78
2022/04/25 07:45:27;;;;;;;38.80;19.03;;;8.90;99.90;;;;;;5086373;28;20460;-78
2022/04/25 07:47:59;;;;;;;39.87;20.77;;;8.90;99.90;;;;;;5086840;28;20661;-78
2022/04/25 07:50:26;;;;;;;46.67;22.20;;;8.70;99.90;;;;;;5088333;28;20521;-78
2022/04/25 07:52:53;;;;;;;46.23;20.73;;;8.90;99.90;;;;;;5085675;28;20664;-78
2022/04/25 07:55:22;;;;;;;42.73;20.63;;;9.00;99.90;;;;;;5085729;28;20221;-79
2022/04/25 07:57:49;;;;;;;42.53;21.47;;;9.00;99.90;;;;;;5085067;28;20220;-78
2022/04/25 08:00:16;;;;;;;42.97;20.90;;;8.80;99.90;;;;;;5085527;28;20240;-77
2022/04/25 08:02:43;;;;;;;41.67;20.63;;;9.10;99.90;;;;;;5084475;28;20303;-79
2022/04/25 08:05:10;;;;;;;41.97;21.87;;;9.10;99.90;;;;;;5068143;28;20205;-78
2022/04/25 08:07:38;;;;;;;36.23;20.07;;;9.20;99.90;;;;;;5087655;28;20269;-79
2022/04/25 08:10:05;;;;;;;40.07;20.43;;;9.20;99.90;;;;;;5083512;28;20202;-77
2022/04/25 08:18:06;;;;;;;46.80;21.13;;;9.20;99.90;;;;;;5085201;28;20206;-80
2022/04/25 08:20:37;;;;;;;43.93;20.70;;;9.20;99.90;;;;;;5078702;28;20234;-79
2022/04/25 08:23:12;;;;;;;46.97;23.53;;;10.10;99.90;;;;;;5084446;28;20776;-80
2022/04/25 08:25:41;;;;;;;42.67;21.13;;;9.30;99.90;;;;;;5069294;28;20244;-80
2022/04/25 08:28:09;;;;;;;42.83;21.67;;;8.60;99.90;;;;;;5066674;28;20223;-78
2022/04/25 08:30:37;;;;;;;43.33;20.77;;;9.40;99.90;;;;;;5086295;28;20681;-78
2022/04/25 08:33:04;;;;;;;40.23;21.30;;;9.40;99.90;;;;;;5066409;28;20657;-79
2022/04/25 08:35:33;;;;;;;41.30;21.17;;;9.40;99.90;;;;;;5080137;28;20202;-78
2022/04/25 08:38:00;;;;;;;37.30;19.97;;;9.20;99.90;;;;;;5070046;28;20269;-78
2022/04/25 08:40:27;;;;;;;45.03;21.83;;;9.50;99.90;;;;;;5078873;28;20214;-79
2022/04/25 08:42:57;;;;;;;39.80;21.20;;;9.50;99.90;;;;;;5083984;28;20235;-79
2022/04/25 08:45:32;;;;;;;41.60;21.73;;;9.50;99.90;;;;;;5061327;28;20204;-78
2022/04/25 08:48:00;;;;;;;37.73;20.30;;;9.40;99.90;;;;;;5085989;28;20224;-81
2022/04/25 08:50:29;;;;;;;45.37;22.37;;;9.60;99.90;;;;;;5068940;28;20218;-79
2022/04/25 08:53:05;;;;;;;42.37;21.43;;;9.70;99.90;;;;;;5086622;28;20537;-79
2022/04/25 08:55:31;;;;;;;39.67;21.73;;;10.10;99.90;;;;;;5081386;28;20204;-78
2022/04/25 08:57:59;;;;;;;41.97;21.50;;;9.90;99.90;;;;;;5086245;28;20237;-79
2022/04/25 09:00:26;;;;;;;39.50;20.23;;;10.10;99.90;;;;;;5084370;28;20273;-77
2022/04/25 09:02:54;;;;;;;34.97;19.47;;;10.00;99.90;;;;;;5087425;28;20203;-78
2022/04/25 09:05:22;;;;;;;37.80;21.13;;;10.10;99.90;;;;;;5068459;28;20287;-78
2022/04/25 09:07:49;;;;;;;38.93;20.27;;;10.20;99.90;;;;;;5086694;28;20235;-79
2022/04/25 09:10:18;;;;;;;33.53;18.97;;;10.30;99.90;;;;;;5087031;28;20203;-78
2022/04/25 09:12:46;;;;;;;36.27;19.97;;;9.80;99.90;;;;;;5085019;28;20201;-78
2022/04/25 09:15:22;;;;;;;36.33;19.30;;;10.60;99.90;;;;;;5082615;28;20215;-79
2022/04/25 09:17:55;;;;;;;38.73;19.73;;;10.50;99.90;;;;;;5081410;28;20207;-78
2022/04/25 09:20:24;;;;;;;34.70;18.73;;;10.70;99.90;;;;;;5081045;28;20216;-79
2022/04/25 09:22:51;;;;;;;35.03;18.37;;;10.80;99.90;;;;;;5080451;28;20209;-78
2022/04/25 09:25:19;;;;;;;31.97;18.17;;;10.90;99.90;;;;;;5080840;28;20202;-80
2022/04/25 09:28:12;;;;;;;27.23;17.63;;;12.00;99.90;;;;;;5080400;28;20748;-77
2022/04/25 09:31:00;;;;;;;33.07;18.03;;;11.10;99.90;;;;;;5086073;28;20255;-79
2022/04/25 09:33:27;;;;;;;30.70;17.30;;;10.70;99.90;;;;;;5081873;28;20198;-77
2022/04/25 09:35:55;;;;;;;28.63;16.80;;;11.20;99.90;;;;;;5085315;28;20262;-78
2022/04/25 09:38:37;;;;;;;31.43;17.67;;;11.30;99.90;;;;;;5083386;28;20315;-77
2022/04/25 09:41:06;;;;;;;28.03;16.93;;;11.30;99.90;;;;;;5081312;28;20730;-78
2022/04/25 09:43:35;;;;;;;25.83;16.10;;;11.30;99.90;;;;;;5084353;28;20216;-77
2022/04/25 09:46:04;;;;;;;27.03;16.27;;;11.40;99.90;;;;;;5083031;28;20210;-78
2022/04/25 09:48:32;;;;;;;27.83;16.33;;;11.30;99.90;;;;;;5089015;28;20237;-76
2022/04/25 09:51:02;;;;;;;26.67;15.30;;;11.50;99.90;;;;;;5088634;28;20234;-78
2022/04/25 09:54:04;;;;;;;25.17;15.00;;;11.70;99.90;;;;;;5087727;28;20670;-78
2022/04/25 09:56:31;;;;;;;23.73;14.77;;;12.20;99.90;;;;;;5026453;28;20214;-77
2022/04/25 09:59:09;;;;;;;25.20;15.20;;;11.40;99.90;;;;;;5079258;28;20314;-78
2022/04/25 10:01:39;;;;;;;24.10;14.57;;;11.40;99.90;;;;;;5087892;28;20212;-78
2022/04/25 10:04:31;;;;;;;24.67;14.53;;;11.20;99.90;;;;;;5084711;28;20198;-79
2022/04/25 10:07:03;;;;;;;26.70;15.47;;;11.60;99.90;;;;;;5087262;28;20218;-79
2022/04/25 10:09:34;;;;;;;21.60;14.67;;;11.30;99.90;;;;;;5080522;28;20682;-77
2022/04/25 10:12:04;;;;;;;26.93;15.23;;;10.60;99.90;;;;;;5089383;28;20396;-77
2022/04/25 10:14:33;;;;;;;25.67;15.63;;;11.40;99.90;;;;;;5084388;28;20220;-77
2022/04/25 10:17:00;;;;;;;25.93;14.33;;;11.40;99.90;;;;;;5068600;28;20203;-77
2022/04/25 10:19:28;;;;;;;24.13;15.17;;;11.70;99.90;;;;;;5082363;28;20212;-78
2022/04/25 10:21:56;;;;;;;23.80;15.37;;;12.00;99.90;;;;;;5089689;28;20277;-77
2022/04/25 10:24:23;;;;;;;28.90;14.73;;;11.60;99.90;;;;;;5070897;28;20210;-78
2022/04/25 10:26:52;;;;;;;24.80;14.30;;;12.60;99.90;;;;;;5070768;28;20307;-78
2022/04/25 10:29:26;;;;;;;22.20;14.63;;;11.20;99.90;;;;;;5080512;28;20696;-77
2022/04/25 10:31:58;;;;;;;23.67;14.10;;;12.20;99.90;;;;;;5086191;28;20670;-78
2022/04/25 10:34:51;;;;;;;24.70;14.83;;;12.40;99.90;;;;;;5088990;28;20283;-81
2022/04/25 10:37:29;;;;;;;20.27;13.03;;;11.50;99.90;;;;;;5084227;28;20306;-78
2022/04/25 10:39:57;;;;;;;22.70;13.73;;;11.50;99.90;;;;;;5091310;28;20207;-77
2022/04/25 10:45:10;;;;;;;20.77;13.50;;;12.20;99.90;;;;;;5087336;28;20677;-78
2022/04/25 10:47:57;;;;;;;20.70;14.00;;;11.60;99.90;;;;;;5083726;28;20203;-78
2022/04/25 10:50:25;;;;;;;22.60;13.73;;;11.90;99.90;;;;;;5090586;28;20205;-78
2022/04/25 10:52:55;;;;;;;21.47;13.87;;;11.40;99.90;;;;;;5088705;28;20276;-78
2022/04/25 10:55:35;;;;;;;25.33;13.70;;;11.90;99.90;;;;;;5089008;28;20214;-78
2022/04/25 10:58:01;;;;;;;26.37;13.93;;;12.10;99.90;;;;;;5083726;28;20194;-78
2022/04/25 11:00:37;;;;;;;19.87;12.60;;;11.80;99.90;;;;;;5086568;28;20203;-78
2022/04/25 11:03:12;;;;;;;24.27;14.07;;;11.60;99.90;;;;;;5088404;28;20617;-78
2022/04/25 11:05:40;;;;;;;20.93;13.13;;;11.70;99.90;;;;;;5082892;28;20482;-78
2022/04/25 11:08:18;;;;;;;19.07;13.23;;;11.70;99.90;;;;;;5087496;28;20288;-78
2022/04/25 11:10:54;;;;;;;22.83;13.50;;;12.30;99.90;;;;;;5069925;28;20210;-79
2022/04/25 11:13:22;;;;;;;22.43;13.43;;;11.50;99.90;;;;;;5084033;28;20658;-78
2022/04/25 11:15:49;;;;;;;20.53;13.60;;;11.10;99.90;;;;;;5088016;28;20194;-79
2022/04/25 11:18:30;;;;;;;19.70;13.07;;;11.40;99.90;;;;;;5086983;28;20209;-78
2022/04/25 11:20:59;;;;;;;23.03;13.57;;;11.80;99.90;;;;;;5084010;28;20213;-79
2022/04/25 11:23:29;;;;;;;25.33;14.50;;;11.20;99.90;;;;;;5086227;28;20223;-78
2022/04/25 11:25:56;;;;;;;21.90;13.07;;;11.20;99.90;;;;;;5074112;28;20294;-78
2022/04/25 11:28:24;;;;;;;25.90;14.93;;;10.70;99.90;;;;;;5088743;28;20259;-78
2022/04/25 11:31:15;;;;;;;25.93;14.60;;;11.10;99.90;;;;;;5088228;28;20359;-78
2022/04/25 11:33:44;;;;;;;28.10;15.90;;;11.30;99.90;;;;;;5075756;28;20210;-80
2022/04/25 11:36:11;;;;;;;26.23;16.63;;;11.60;99.90;;;;;;5087754;28;20335;-78
2022/04/25 11:41:25;;;;;;;27.93;16.13;;;11.10;99.90;;;;;;5084523;28;20726;-78
2022/04/25 11:43:55;;;;;;;27.43;15.73;;;11.20;99.90;;;;;;5083262;28;20207;-78
2022/04/25 11:46:22;;;;;;;26.70;16.10;;;11.80;99.90;;;;;;5083652;28;20232;-79
2022/04/25 11:48:53;;;;;;;28.43;15.03;;;11.00;99.90;;;;;;5079154;28;20231;-79
2022/04/25 11:51:29;;;;;;;25.87;15.33;;;10.70;99.90;;;;;;5085060;28;20211;-79
2022/04/25 11:54:03;;;;;;;30.67;16.27;;;10.90;99.90;;;;;;5079028;28;20654;-78
2022/04/25 11:56:32;;;;;;;33.57;16.47;;;10.80;99.90;;;;;;5085695;28;20221;-77
2022/04/25 11:59:00;;;;;;;26.17;15.30;;;10.80;99.90;;;;;;5087730;28;20239;-78
2022/04/25 12:01:35;;;;;;;27.00;15.47;;;10.40;99.90;;;;;;5086551;28;20237;-80
2022/04/25 12:04:26;;;;;;;30.10;17.00;;;11.00;99.90;;;;;;5084010;28;20277;-79
2022/04/25 12:07:05;;;;;;;32.03;17.47;;;10.90;99.90;;;;;;5067197;28;20437;-79
2022/04/25 12:15:42;;;;;;;30.70;17.57;;;11.00;99.90;;;;;;5084099;28;20197;-78
2022/04/25 12:18:23;;;;;;;30.53;17.40;;;11.20;99.90;;;;;;5085003;28;20385;-78
2022/04/25 12:21:12;;;;;;;33.53;17.70;;;11.20;99.90;;;;;;5084957;28;20206;-78
2022/04/25 12:23:46;;;;;;;29.60;17.20;;;11.90;99.90;;;;;;5084298;28;20248;-78
2022/04/25 12:26:17;;;;;;;27.20;16.40;;;11.60;99.90;;;;;;5079122;28;20716;-78
2022/04/25 12:28:51;;;;;;;33.47;17.70;;;11.30;99.90;;;;;;5086812;28;20258;-78
2022/04/25 12:31:19;;;;;;;29.97;17.90;;;11.50;99.90;;;;;;5085630;28;20199;-78
2022/04/25 12:33:48;;;;;;;26.73;15.93;;;11.40;99.90;;;;;;5087246;28;20298;-78
2022/04/25 12:36:18;;;;;;;29.00;17.10;;;11.50;99.90;;;;;;5090269;28;20209;-78
2022/04/25 12:39:02;;;;;;;28.17;16.43;;;11.90;99.90;;;;;;5084251;28;20683;-80
2022/04/25 12:41:31;;;;;;;28.87;16.17;;;11.50;99.90;;;;;;5066108;28;20242;-79
2022/04/25 12:44:11;;;;;;;27.50;16.67;;;11.60;99.90;;;;;;5082171;28;20208;-78
2022/04/25 12:46:44;;;;;;;23.93;15.67;;;11.70;99.90;;;;;;5082094;28;20208;-78
2022/04/25 12:49:16;;;;;;;32.43;17.80;;;11.80;99.90;;;;;;5068767;28;20242;-80
2022/04/25 12:51:52;;;;;;;26.67;16.33;;;12.00;99.90;;;;;;5090268;28;20561;-79
2022/04/25 12:54:32;;;;;;;24.43;16.00;;;12.20;99.90;;;;;;5075726;28;20213;-80
2022/04/25 12:57:15;;;;;;;25.23;15.90;;;12.10;99.90;;;;;;5088701;28;20260;-79
2022/04/25 12:59:48;;;;;;;25.27;14.67;;;12.30;99.90;;;;;;5085312;28;20306;-80
2022/04/25 13:02:22;;;;;;;24.83;15.73;;;12.30;99.90;;;;;;5069109;28;20607;-78
2022/04/25 13:04:52;;;;;;;24.23;14.97;;;12.50;99.90;;;;;;5084247;28;20637;-81
2022/04/25 13:07:30;;;;;;;22.77;14.80;;;12.90;99.90;;;;;;5086349;28;20219;-79
2022/04/25 13:10:03;;;;;;;21.47;14.87;;;12.70;99.90;;;;;;5082548;28;20721;-79
2022/04/25 13:12:37;;;;;;;25.30;16.23;;;12.90;99.90;;;;;;5066281;28;20204;-79
2022/04/25 13:15:06;;;;;;;22.90;15.30;;;12.80;99.90;;;;;;5086217;28;20299;-80
2022/04/25 13:17:39;;;;;;;21.47;14.57;;;12.80;99.90;;;;;;5081949;28;20192;-78
2022/04/25 13:20:08;;;;;;;24.20;16.33;;;12.80;99.90;;;;;;5083621;28;20217;-78
2022/04/25 13:22:36;;;;;;;25.17;15.80;;;12.70;99.90;;;;;;5088262;28;20211;-78
2022/04/25 13:25:05;;;;;;;25.00;15.83;;;12.00;99.90;;;;;;5089703;28;20211;-81